Glendale, Kentucky
Current Conditions -  °F | °C
As of 7:58 PM on Friday 19 Dec 2014 (Local Time) from KFTK Reporting Station
Clear Clear  
Wind Chill: 22°   Ceiling: Unl
Heat Index: 29°   Visibility: 10mi
Dew Point: 22°   Wind: 6mph
Humidity: 77%   Direction: 20°NNE
Pressure: 30.26"   Gusts: NA
Location:  37.6°N, 85.91°W
Report Text: KFTK 200058Z AUTO 02005KT 10SM CLR M02/M05 A3026 RMK AO2 SLP258 T10191055
Loading
Personal Weather Stations






























Interactive Weather Map New forecast layout! Learn more

10-Day Weather Forecast

Advertisements
Track Severe Weather on mobile